Time;durP1;ratioP1;P1;durP2;ratioP2;P2;SDS_P1;SDS_P2;PMS_P1;PMS_P2;Temp;Humidity;BMP_temperature;BMP_pressure;BME280_temperature;BME280_humidity;BME280_pressure;Samples;Min_cycle;Max_cycle;Signal;HPM_P1;HPM_P2
2024/04/25 00:02:25;;;;;;;4.57;2.63;;;7.50;58.60;;;2.45;98.19;94855.22;5325601;26;20001;-48
2024/04/25 00:04:50;;;;;;;3.65;2.40;;;7.50;58.40;;;2.44;98.87;94852.78;5315042;26;20024;-49
2024/04/25 00:07:17;;;;;;;4.35;2.65;;;7.50;58.40;;;2.45;99.04;94859.69;5337140;26;20023;-50
2024/04/25 00:09:43;;;;;;;3.13;2.47;;;7.40;58.40;;;2.49;98.79;94856.34;5319229;26;20463;-48
2024/04/25 00:12:09;;;;;;;3.78;2.55;;;7.40;58.40;;;2.49;98.97;94852.91;5337441;26;20044;-48
2024/04/25 00:14:35;;;;;;;4.25;2.78;;;7.40;58.40;;;2.49;99.14;94847.66;5317084;26;20020;-49
2024/04/25 00:17:01;;;;;;;4.13;2.70;;;7.40;58.30;;;2.42;99.43;94849.63;5323708;26;20019;-48
2024/04/25 00:19:26;;;;;;;3.40;2.70;;;7.40;58.40;;;2.42;99.70;94842.53;5327239;26;20009;-51
2024/04/25 00:21:52;;;;;;;4.82;2.72;;;7.40;58.40;;;2.39;99.90;94839.56;5321668;26;20008;-49
2024/04/25 00:24:21;;;;;;;3.40;2.67;;;7.40;58.40;;;2.40;100.00;94846.41;5313006;26;20009;-53
2024/04/25 00:26:48;;;;;;;3.35;2.38;;;7.40;58.40;;;2.39;99.96;94843.00;5330775;26;20018;-54
2024/04/25 00:29:14;;;;;;;3.05;2.58;;;7.40;58.40;;;2.35;100.00;94836.59;5317566;26;20016;-51
2024/04/25 00:31:40;;;;;;;6.55;2.70;;;7.30;58.40;;;2.34;100.00;94836.81;5338471;26;20057;-49
2024/04/25 00:34:05;;;;;;;4.00;2.78;;;7.30;58.40;;;2.34;100.00;94835.00;5319097;26;20625;-51
2024/04/25 00:36:31;;;;;;;3.90;2.30;;;7.30;58.50;;;2.33;100.00;94832.59;5327160;26;20005;-50
2024/04/25 00:39:00;;;;;;;4.93;2.42;;;7.30;58.50;;;2.32;100.00;94831.81;5327537;26;20004;-53
2024/04/25 00:41:26;;;;;;;5.15;3.00;;;7.30;58.60;;;2.25;100.00;94834.53;5350206;26;20005;-52
2024/04/25 00:43:52;;;;;;;4.78;2.88;;;7.30;58.60;;;2.26;100.00;94827.47;5341618;26;20008;-51
2024/04/25 00:46:20;;;;;;;3.60;2.60;;;7.30;58.70;;;2.25;100.00;94829.28;5344868;26;20094;-51
2024/04/25 00:48:48;;;;;;;3.47;2.53;;;7.20;58.60;;;2.22;100.00;94815.81;5340353;26;20521;-51
2024/04/25 00:51:19;;;;;;;5.35;2.60;;;7.20;58.70;;;2.22;100.00;94819.22;5328609;26;20385;-48
2024/04/25 00:53:46;;;;;;;5.47;2.67;;;7.20;59.30;;;2.21;100.00;94816.84;5344151;26;20008;-48
2024/04/25 00:56:16;;;;;;;3.35;2.70;;;7.20;58.70;;;2.17;100.00;94810.47;5333509;26;20376;-52
2024/04/25 00:58:48;;;;;;;4.72;2.67;;;7.10;58.80;;;2.13;100.00;94811.94;5333339;26;20382;-49
2024/04/25 01:01:18;;;;;;;3.70;2.78;;;7.10;58.80;;;2.12;100.00;94810.34;5336395;26;20370;-51
2024/04/25 01:03:45;;;;;;;4.57;2.60;;;7.10;58.80;;;2.01;100.00;94807.50;5336825;26;20546;-51
2024/04/25 01:06:15;;;;;;;6.00;3.40;;;7.10;58.80;;;1.97;100.00;94811.59;5334759;26;20271;-49
2024/04/25 01:08:41;;;;;;;3.85;2.70;;;7.10;58.90;;;1.92;100.00;94810.72;5328724;26;20468;-53
2024/04/25 01:11:07;;;;;;;5.95;3.08;;;7.00;58.90;;;1.94;100.00;94811.25;5331750;26;20091;-52
2024/04/25 01:13:32;;;;;;;5.72;3.00;;;7.00;59.00;;;1.90;100.00;94810.91;5326722;26;20235;-53
2024/04/25 01:16:00;;;;;;;3.58;2.75;;;6.90;58.90;;;1.86;100.00;94801.91;5331157;26;20462;-49
2024/04/25 01:18:26;;;;;;;3.88;2.65;;;6.90;59.00;;;1.82;100.00;94795.53;5331330;26;20048;-51
2024/04/25 01:20:53;;;;;;;5.38;3.25;;;6.80;58.90;;;1.74;100.00;94798.47;5337462;26;20019;-49
2024/04/25 01:23:26;;;;;;;4.28;2.70;;;6.80;58.90;;;1.67;100.00;94795.16;5329067;26;20013;-49
2024/04/25 01:25:52;;;;;;;4.45;3.00;;;6.70;59.00;;;1.60;100.00;94793.47;5326804;26;20043;-51
2024/04/25 01:28:20;;;;;;;5.28;3.22;;;6.60;59.00;;;1.54;100.00;94785.69;5339785;26;20029;-52
2024/04/25 01:30:46;;;;;;;5.10;2.90;;;6.60;59.10;;;1.46;100.00;94786.81;5331713;26;20004;-54
2024/04/25 01:33:15;;;;;;;5.03;3.00;;;6.50;59.10;;;1.37;100.00;94783.72;5327194;26;20043;-50
2024/04/25 01:35:45;;;;;;;5.28;3.35;;;6.50;59.10;;;1.31;100.00;94789.88;5342187;26;20012;-54
2024/04/25 01:38:12;;;;;;;5.55;3.58;;;6.40;59.20;;;1.22;100.00;94785.16;5325094;26;20357;-51
2024/04/25 01:40:38;;;;;;;8.07;3.70;;;6.40;59.30;;;1.21;100.00;94789.63;5339391;26;20021;-52
2024/04/25 01:43:05;;;;;;;5.18;3.38;;;6.30;59.40;;;1.23;100.00;94784.16;5339695;26;20064;-51
2024/04/25 01:45:31;;;;;;;6.85;3.60;;;6.30;59.60;;;1.26;100.00;94783.72;5330140;26;20020;-51
2024/04/25 01:47:56;;;;;;;4.82;2.90;;;6.30;59.70;;;1.29;100.00;94785.88;5332404;26;20008;-48
2024/04/25 01:50:22;;;;;;;5.00;3.33;;;6.30;59.80;;;1.32;100.00;94775.75;5331442;26;20013;-49
2024/04/25 01:52:48;;;;;;;5.72;3.42;;;6.40;60.00;;;1.36;100.00;94776.09;5330347;26;20462;-54
2024/04/25 01:55:14;;;;;;;6.45;3.30;;;6.40;60.00;;;1.38;100.00;94774.84;5324710;26;20433;-49
2024/04/25 01:57:40;;;;;;;5.80;2.70;;;6.40;60.00;;;1.43;100.00;94781.22;5335325;26;20085;-49
2024/04/25 02:00:07;;;;;;;7.97;3.25;;;6.50;60.00;;;1.44;100.00;94780.97;5319334;26;20012;-50
2024/04/25 02:02:33;;;;;;;5.63;3.40;;;6.50;60.10;;;1.46;100.00;94773.69;5321908;26;20024;-54
2024/04/25 02:04:58;;;;;;;6.88;3.10;;;6.50;60.00;;;1.51;100.00;94776.44;5325320;26;20004;-49
2024/04/25 02:07:24;;;;;;;7.18;2.97;;;6.60;60.10;;;1.55;100.00;94779.41;5317379;26;20418;-51
2024/04/25 02:09:50;;;;;;;6.45;3.22;;;6.60;60.10;;;1.57;100.00;94772.91;5324513;26;20008;-49
2024/04/25 02:12:18;;;;;;;4.97;2.90;;;6.60;60.10;;;1.62;100.00;94769.59;5322539;26;20017;-50
2024/04/25 02:14:44;;;;;;;7.53;3.00;;;6.70;60.20;;;1.65;100.00;94765.72;5328285;26;20019;-50
2024/04/25 02:17:10;;;;;;;5.55;3.25;;;6.70;60.10;;;1.68;100.00;94763.44;5316091;26;20359;-49
2024/04/25 02:19:36;;;;;;;5.85;3.38;;;6.70;60.10;;;1.71;100.00;94756.94;5326090;26;20025;-51
2024/04/25 02:25:31;;;;;;;5.15;2.70;;;6.80;60.10;;;1.77;100.00;94758.63;5313970;26;20091;-53
2024/04/25 02:27:34;;;;;;;7.72;3.15;;;6.80;60.10;;;1.82;100.00;94764.00;5303255;26;20432;-50
2024/04/25 02:30:00;;;;;;;3.40;2.85;;;6.90;60.90;;;1.87;100.00;94761.47;5313122;26;20020;-49
2024/04/25 02:32:26;;;;;;;3.78;2.88;;;6.90;60.10;;;1.87;100.00;94758.84;5328786;26;20016;-54
2024/04/25 02:34:52;;;;;;;6.25;3.00;;;6.90;60.10;;;1.91;100.00;94757.34;5322370;26;20062;-53
2024/04/25 02:37:17;;;;;;;6.32;3.10;;;6.90;60.10;;;1.94;100.00;94756.09;5317525;26;20036;-50
2024/04/25 02:39:43;;;;;;;4.60;2.92;;;7.00;60.10;;;1.96;100.00;94752.22;5323265;26;20009;-49
2024/04/25 02:42:09;;;;;;;5.80;2.92;;;7.00;60.10;;;1.93;100.00;94757.94;5322736;26;20017;-50
2024/04/25 02:44:35;;;;;;;4.38;3.13;;;7.00;60.10;;;1.95;100.00;94755.09;5328532;26;20360;-51
2024/04/25 02:47:01;;;;;;;4.35;3.00;;;7.00;60.10;;;1.96;100.00;94746.97;5332651;26;20015;-50
2024/04/25 02:49:27;;;;;;;4.80;2.90;;;7.00;60.10;;;1.97;100.00;94748.56;5322105;26;20009;-48
2024/04/25 02:51:53;;;;;;;3.83;2.70;;;7.00;60.10;;;1.93;100.00;94750.06;5318794;26;20005;-49
2024/04/25 02:54:19;;;;;;;4.82;2.78;;;7.00;60.00;;;1.93;100.00;94759.75;5324937;26;20037;-51
2024/04/25 02:56:45;;;;;;;4.82;2.80;;;7.00;60.00;;;1.95;100.00;94757.72;5316717;26;20012;-49
2024/04/25 02:59:11;;;;;;;4.45;2.47;;;7.00;60.00;;;1.98;100.00;94747.53;5323293;26;20013;-49
2024/04/25 03:01:37;;;;;;;4.28;2.60;;;7.00;60.00;;;1.97;100.00;94751.19;5328847;26;20024;-51
2024/04/25 03:04:04;;;;;;;5.43;2.60;;;7.00;60.00;;;1.97;100.00;94748.56;5322926;26;20556;-54
2024/04/25 03:06:30;;;;;;;4.82;2.90;;;7.00;60.00;;;1.96;100.00;94752.22;5316823;26;20478;-49
2024/04/25 03:08:56;;;;;;;5.05;2.97;;;7.00;60.00;;;1.97;100.00;94750.38;5333180;26;20076;-50
2024/04/25 03:11:22;;;;;;;6.65;3.00;;;7.00;60.00;;;1.96;100.00;94749.59;5314390;26;20446;-53
2024/04/25 03:13:48;;;;;;;6.00;2.95;;;7.00;60.00;;;1.99;100.00;94754.38;5336072;26;20008;-54
2024/04/25 03:16:13;;;;;;;6.75;3.05;;;7.00;60.00;;;2.07;100.00;94755.88;5317120;26;20013;-52
2024/04/25 03:18:39;;;;;;;5.50;3.17;;;7.10;60.10;;;2.04;100.00;94746.63;5314993;26;20470;-50
2024/04/25 03:21:07;;;;;;;4.40;3.03;;;7.10;60.10;;;2.09;100.00;94743.28;5324944;26;20013;-49
2024/04/25 03:23:41;;;;;;;5.55;3.28;;;7.10;60.00;;;2.12;100.00;94745.44;5316738;26;20012;-49
2024/04/25 03:26:08;;;;;;;4.80;2.70;;;7.10;60.00;;;2.15;100.00;94747.63;5325671;26;20367;-49
2024/04/25 03:28:35;;;;;;;4.65;3.10;;;7.20;60.00;;;2.15;100.00;94744.19;5323071;26;20018;-48
2024/04/25 03:31:03;;;;;;;6.55;3.30;;;7.20;60.00;;;2.07;100.00;94740.91;5311952;26;20079;-50
2024/04/25 03:33:29;;;;;;;5.18;3.33;;;7.20;59.90;;;2.14;100.00;94751.28;5324185;26;20526;-52
2024/04/25 03:35:55;;;;;;;5.35;3.13;;;7.20;59.90;;;2.11;100.00;94750.94;5314770;26;20005;-50
2024/04/25 03:38:21;;;;;;;4.43;3.20;;;7.20;59.90;;;2.15;100.00;94750.25;5326377;26;20028;-50
2024/04/25 03:40:47;;;;;;;7.10;3.45;;;7.20;59.90;;;2.16;100.00;94743.94;5324386;26;20040;-51
2024/04/25 03:43:12;;;;;;;6.18;3.53;;;7.20;59.90;;;2.17;100.00;94750.81;5323297;26;20004;-52
2024/04/25 03:45:38;;;;;;;4.80;3.45;;;7.20;59.90;;;2.19;100.00;94750.56;5324497;26;20041;-49
2024/04/25 03:48:05;;;;;;;6.20;3.60;;;7.20;59.90;;;2.20;100.00;94749.56;5337563;26;20432;-50
2024/04/25 03:50:31;;;;;;;8.07;3.78;;;7.20;59.90;;;2.20;100.00;94750.34;5317994;26;20045;-50
2024/04/25 03:52:56;;;;;;;6.85;3.67;;;7.20;60.00;;;2.20;100.00;94747.72;5289636;26;20019;-50
2024/04/25 03:55:22;;;;;;;7.57;4.28;;;7.20;60.00;;;2.17;100.00;94747.41;5320180;26;20024;-51
2024/04/25 03:57:48;;;;;;;6.78;4.05;;;7.20;60.00;;;2.09;100.00;94743.28;5331079;26;20008;-50
2024/04/25 04:00:14;;;;;;;8.85;4.20;;;7.10;60.10;;;2.11;100.00;94750.94;5326476;26;20005;-52
2024/04/25 04:02:40;;;;;;;8.98;4.60;;;7.10;60.20;;;2.15;100.00;94742.34;5328797;26;20007;-50
2024/04/25 04:05:06;;;;;;;12.77;6.00;;;7.10;60.30;;;2.13;100.00;94741.81;5312679;26;20562;-51
2024/04/25 04:07:33;;;;;;;9.52;5.22;;;7.10;60.40;;;2.08;100.00;94745.13;5327531;26;20035;-50
2024/04/25 04:09:59;;;;;;;13.82;7.20;;;7.10;60.60;;;1.94;100.00;94750.84;5314037;26;20016;-49
2024/04/25 04:12:24;;;;;;;15.35;7.45;;;7.00;60.60;;;1.93;100.00;94751.88;5323523;26;20012;-50
2024/04/25 04:14:50;;;;;;;15.25;5.97;;;7.00;60.80;;;1.94;100.00;94749.00;5317580;26;20013;-50
2024/04/25 04:17:16;;;;;;;15.00;6.45;;;7.00;60.90;;;1.89;100.00;94753.38;5324899;26;20035;-51
2024/04/25 04:19:42;;;;;;;12.57;7.00;;;6.90;60.90;;;1.87;100.00;94753.59;5316640;26;20005;-51
2024/04/25 04:22:08;;;;;;;18.38;9.05;;;6.90;61.00;;;1.91;100.00;94756.56;5327443;26;20359;-52
2024/04/25 04:24:34;;;;;;;14.63;7.80;;;6.90;61.10;;;1.93;100.00;94757.13;5315260;26;20479;-49
2024/04/25 04:27:00;;;;;;;22.65;9.80;;;6.90;61.20;;;1.90;100.00;94754.97;5336569;26;20084;-49
2024/04/25 04:29:27;;;;;;;18.13;7.82;;;6.80;61.20;;;1.83;100.00;94755.88;5319501;26;20091;-50
2024/04/25 04:31:53;;;;;;;14.15;6.75;;;6.80;61.30;;;1.81;100.00;94747.44;5321971;26;20003;-50
2024/04/25 04:34:19;;;;;;;18.30;8.38;;;6.80;61.50;;;1.82;100.00;94754.31;5322069;26;20016;-53
2024/04/25 04:36:45;;;;;;;21.75;10.13;;;6.80;61.70;;;1.85;100.00;94750.41;5321773;26;20023;-49
2024/04/25 04:39:11;;;;;;;17.08;7.78;;;6.80;61.70;;;1.85;100.00;94753.84;5320760;26;20009;-51
2024/04/25 04:41:38;;;;;;;14.48;7.00;;;6.80;61.80;;;1.85;100.00;94760.94;5326126;26;20027;-49
2024/04/25 04:44:04;;;;;;;9.32;5.43;;;6.80;61.90;;;1.84;100.00;94751.44;5327407;26;20047;-49
2024/04/25 04:46:30;;;;;;;9.27;5.88;;;6.80;61.90;;;1.86;100.00;94762.50;5310156;26;20476;-49
2024/04/25 04:48:56;;;;;;;7.85;4.90;;;6.80;62.00;;;1.86;100.00;94762.50;5339983;26;20036;-51
2024/04/25 04:51:22;;;;;;;8.77;4.75;;;6.80;62.10;;;1.90;100.00;94765.47;5336563;26;20012;-51
2024/04/25 04:53:48;;;;;;;9.73;5.53;;;6.90;62.20;;;1.91;100.00;94764.44;5343695;26;20011;-50
2024/04/25 04:56:15;;;;;;;9.57;4.80;;;6.90;62.20;;;1.89;100.00;94762.06;5335941;26;20483;-50
2024/04/25 04:58:41;;;;;;;9.35;5.43;;;6.90;62.30;;;1.94;100.00;94766.59;5341781;26;20356;-49
2024/04/25 05:01:08;;;;;;;7.20;4.70;;;6.90;62.30;;;1.94;100.00;94764.78;5334559;26;20023;-50
2024/04/25 05:03:34;;;;;;;8.60;4.90;;;7.00;62.40;;;1.96;100.00;94760.09;5344316;26;20371;-50
2024/04/25 05:06:00;;;;;;;6.47;4.72;;;7.00;62.40;;;1.97;100.00;94760.88;5335131;26;20015;-50
2024/04/25 05:08:27;;;;;;;9.77;4.90;;;7.00;62.40;;;2.04;100.00;94759.75;5344927;26;20536;-48
2024/04/25 05:10:54;;;;;;;10.45;5.43;;;7.10;62.40;;;2.05;100.00;94760.56;5340740;26;20077;-49
2024/04/25 05:13:21;;;;;;;7.65;4.68;;;7.10;62.40;;;2.05;100.00;94763.97;5340779;26;20085;-51
2024/04/25 05:15:47;;;;;;;8.93;4.88;;;7.20;62.40;;;2.10;100.00;94763.28;5345749;26;20005;-50
2024/04/25 05:18:12;;;;;;;8.35;5.22;;;7.20;62.40;;;2.14;100.00;94766.25;5341764;26;20059;-51
2024/04/25 05:20:38;;;;;;;6.93;5.18;;;7.20;62.20;;;2.22;100.00;94760.63;5346078;26;20019;-49
2024/04/25 05:23:04;;;;;;;7.88;5.13;;;7.30;62.20;;;2.22;100.00;94769.28;5343179;26;20536;-49
2024/04/25 05:25:30;;;;;;;8.90;5.10;;;7.40;62.30;;;2.27;100.00;94772.03;5338686;26;20013;-49
2024/04/25 05:27:56;;;;;;;8.25;4.97;;;7.40;62.20;;;2.27;100.00;94769.41;5349665;26;20019;-51
2024/04/25 05:30:22;;;;;;;6.93;4.50;;;7.50;62.20;;;2.31;100.00;94773.16;5338038;26;20023;-49
2024/04/25 05:32:49;;;;;;;7.47;4.72;;;7.50;62.10;;;2.39;100.00;94773.84;5350840;26;20035;-51
2024/04/25 05:35:17;;;;;;;7.20;4.63;;;7.60;62.10;;;2.44;100.00;94777.34;5336292;26;20366;-50
2024/04/25 05:37:43;;;;;;;8.90;4.97;;;7.70;62.10;;;2.51;100.00;94782.50;5332550;26;20019;-53
2024/04/25 05:40:10;;;;;;;6.55;4.70;;;7.80;62.00;;;2.53;100.00;94778.59;5342393;26;20490;-50
2024/04/25 05:42:36;;;;;;;8.07;4.80;;;7.90;62.00;;;2.59;100.00;94776.06;5341074;26;20004;-49
2024/04/25 05:45:06;;;;;;;5.90;4.57;;;8.00;61.90;;;2.66;100.00;94780.16;5338028;26;20016;-52
2024/04/25 05:47:32;;;;;;;7.40;4.82;;;8.00;61.80;;;2.68;100.00;94775.47;5336083;26;20023;-50
2024/04/25 05:49:58;;;;;;;6.53;4.78;;;8.10;61.70;;;2.74;100.00;94776.38;5337565;26;20012;-52
2024/04/25 05:52:25;;;;;;;10.55;5.15;;;8.20;61.60;;;2.82;100.00;94783.06;5348948;26;20537;-50
2024/04/25 05:54:51;;;;;;;6.78;4.43;;;8.30;61.50;;;2.88;100.00;94776.88;5354245;26;20023;-54
2024/04/25 05:57:18;;;;;;;6.30;4.72;;;8.40;61.40;;;2.93;100.00;94772.50;5342967;26;20367;-51
2024/04/25 05:59:45;;;;;;;8.13;5.07;;;8.50;61.30;;;2.98;100.00;94772.59;5357307;26;20004;-52
2024/04/25 06:02:10;;;;;;;6.70;4.63;;;8.60;61.20;;;2.92;100.00;94776.16;5343339;26;20615;-50
2024/04/25 06:04:37;;;;;;;6.63;4.35;;;8.60;60.80;;;3.00;100.00;94774.97;5353672;26;20406;-50
2024/04/25 06:07:04;;;;;;;7.55;4.60;;;8.70;60.60;;;3.06;100.00;94778.50;5345524;26;20008;-54
2024/04/25 06:09:30;;;;;;;7.43;4.47;;;8.80;60.50;;;3.20;100.00;94775.34;5347905;26;20020;-52
2024/04/25 06:11:55;;;;;;;9.40;5.20;;;8.90;60.40;;;3.31;100.00;94783.41;5345209;26;20467;-50
2024/04/25 06:14:22;;;;;;;7.88;5.07;;;9.00;60.30;;;3.38;100.00;94784.03;5348350;26;20012;-50
2024/04/25 06:16:49;;;;;;;6.30;4.38;;;9.10;60.20;;;3.50;100.00;94784.75;5349219;26;20382;-50
2024/04/25 06:19:15;;;;;;;6.80;4.55;;;9.20;60.00;;;3.57;100.00;94780.13;5342136;26;20027;-53
2024/04/25 06:21:41;;;;;;;6.13;4.22;;;9.40;59.90;;;3.76;100.00;94782.50;5353933;26;20027;-52
2024/04/25 06:24:08;;;;;;;8.07;4.80;;;9.50;59.70;;;3.71;99.79;94781.41;5346825;26;20012;-51
2024/04/25 06:26:34;;;;;;;8.02;3.95;;;9.60;59.40;;;3.88;98.96;94780.59;5356644;26;20018;-50
2024/04/25 06:29:00;;;;;;;7.15;4.07;;;9.80;59.20;;;4.07;99.20;94778.47;5342224;26;20003;-49
2024/04/25 06:31:26;;;;;;;5.88;4.35;;;9.90;59.10;;;4.21;96.53;94773.66;5330003;26;20004;-50
2024/04/25 06:34:01;;;;;;;7.20;4.05;;;10.20;58.90;;;4.36;96.23;94787.84;5357635;26;20018;-51
2024/04/25 06:36:27;;;;;;;7.55;4.00;;;10.40;58.60;;;4.52;95.33;94782.75;5332359;26;20022;-50
2024/04/25 06:38:54;;;;;;;6.55;3.58;;;10.60;58.40;;;4.72;93.34;94779.56;5348611;26;20027;-51
2024/04/25 06:41:20;;;;;;;5.38;3.67;;;10.80;58.00;;;4.90;91.15;94781.06;5337267;26;20020;-50
2024/04/25 06:43:46;;;;;;;5.38;3.45;;;11.10;57.80;;;5.16;88.97;94779.47;5348909;26;20004;-51
2024/04/25 06:46:12;;;;;;;6.28;3.67;;;11.40;57.30;;;5.15;87.41;94783.97;5348036;26;20011;-50
2024/04/25 06:48:38;;;;;;;5.13;3.50;;;11.60;56.90;;;5.34;87.58;94779.91;5349132;26;20008;-51
2024/04/25 06:51:04;;;;;;;6.35;3.47;;;11.80;56.50;;;5.48;86.28;94772.34;5354315;26;20514;-49
2024/04/25 06:53:30;;;;;;;4.93;3.60;;;11.90;56.20;;;5.66;86.12;94786.25;5349859;26;20227;-49
2024/04/25 06:55:56;;;;;;;6.60;3.03;;;12.00;56.00;;;5.73;83.35;94773.59;5350498;26;20008;-49
2024/04/25 06:58:23;;;;;;;4.32;3.10;;;12.20;55.70;;;5.86;79.71;94773.19;5349055;26;20081;-51
2024/04/25 07:00:49;;;;;;;5.85;3.60;;;12.50;54.70;;;5.97;78.44;94772.22;5349496;26;20005;-52
2024/04/25 07:03:15;;;;;;;6.40;3.22;;;12.60;54.30;;;6.03;77.91;94775.69;5349094;26;20008;-50
2024/04/25 07:05:41;;;;;;;5.45;3.25;;;12.60;53.90;;;5.75;74.96;94771.50;5344422;26;20019;-49
2024/04/25 07:08:07;;;;;;;4.85;3.30;;;12.60;53.30;;;5.66;76.14;94775.69;5340052;26;20018;-50
2024/04/25 07:10:33;;;;;;;7.78;3.08;;;12.60;52.70;;;5.82;76.78;94772.09;5315675;26;20005;-50
2024/04/25 07:12:59;;;;;;;4.72;3.20;;;12.60;52.70;;;5.84;76.07;94766.56;5349482;26;20012;-50
2024/04/25 07:15:26;;;;;;;3.60;2.67;;;12.60;52.40;;;5.82;75.89;94766.81;5320218;26;20028;-49
2024/04/25 07:17:59;;;;;;;3.42;2.65;;;12.60;52.10;;;5.75;75.02;94768.88;5324345;26;20432;-50
2024/04/25 07:20:25;;;;;;;7.32;3.00;;;12.60;51.80;;;5.80;74.83;94769.72;5340134;26;20037;-50
2024/04/25 07:22:50;;;;;;;10.30;3.20;;;12.60;51.60;;;6.09;76.11;94768.59;5327958;26;20440;-49
2024/04/25 07:25:17;;;;;;;4.65;3.28;;;12.70;51.90;;;6.20;73.07;94768.38;5341951;26;20016;-51
2024/04/25 07:27:43;;;;;;;5.38;3.03;;;12.80;51.90;;;6.15;74.42;94772.88;5333300;26;20081;-49
2024/04/25 07:30:10;;;;;;;7.82;3.30;;;12.90;51.50;;;6.22;74.51;94773.44;5321285;26;20013;-51
2024/04/25 07:32:38;;;;;;;4.80;3.15;;;13.10;51.30;;;6.25;74.60;94781.63;5329507;26;20135;-49
2024/04/25 07:35:05;;;;;;;6.35;3.38;;;13.10;51.00;;;6.23;72.42;94772.38;5339008;26;20631;-50
2024/04/25 07:37:36;;;;;;;4.63;2.92;;;13.20;50.70;;;6.30;71.65;94772.94;5325409;26;20038;-52
2024/04/25 07:40:07;;;;;;;3.90;2.83;;;13.20;50.30;;;6.35;71.39;94766.88;5324973;26;20005;-49
2024/04/25 07:42:33;;;;;;;3.75;2.70;;;13.20;50.30;;;6.50;71.97;94764.31;5331995;26;20052;-53
2024/04/25 07:45:01;;;;;;;19.13;3.65;;;13.30;50.40;;;6.69;71.85;94764.63;5324365;26;20012;-51
2024/04/25 07:47:28;;;;;;;5.88;2.80;;;13.40;50.40;;;6.66;71.40;94765.94;5336620;26;20399;-50
2024/04/25 07:49:54;;;;;;;5.47;3.10;;;13.40;50.80;;;6.69;70.65;94767.28;5328215;26;20568;-49
2024/04/25 07:52:21;;;;;;;4.43;3.50;;;13.60;50.10;;;6.69;70.01;94765.44;5324704;26;20008;-49
2024/04/25 07:54:48;;;;;;;4.20;2.88;;;13.70;49.80;;;6.87;69.49;94766.03;5332175;26;20004;-50
2024/04/25 07:57:17;;;;;;;5.28;2.95;;;13.80;49.50;;;7.00;66.80;94760.22;5322599;26;20059;-49
2024/04/25 07:59:45;;;;;;;4.60;2.90;;;14.00;49.10;;;7.11;67.53;94764.50;5327521;26;20019;-50
2024/04/25 08:02:12;;;;;;;5.25;3.05;;;14.10;48.90;;;7.01;66.89;94764.47;5331104;26;20020;-49
2024/04/25 08:04:38;;;;;;;4.70;2.80;;;14.20;48.40;;;7.12;66.84;94763.44;5328322;26;20074;-53
2024/04/25 08:07:05;;;;;;;3.83;2.80;;;14.20;48.20;;;7.19;63.04;94757.88;5327887;26;20054;-51
2024/04/25 08:09:34;;;;;;;4.15;2.67;;;14.30;48.00;;;7.25;64.59;94759.47;5328660;26;20059;-49
2024/04/25 08:12:00;;;;;;;3.70;2.70;;;14.40;47.60;;;7.41;64.62;94761.06;5326960;26;20004;-51
2024/04/25 08:14:27;;;;;;;3.67;2.85;;;14.50;47.20;;;7.57;63.67;94759.22;5315646;26;20140;-52
2024/04/25 08:16:53;;;;;;;2.80;2.50;;;14.60;47.10;;;7.55;60.43;94749.94;5326857;26;20005;-53
2024/04/25 08:19:19;;;;;;;4.72;3.00;;;14.60;46.80;;;7.46;60.71;94757.66;5308170;26;20061;-52
2024/04/25 08:21:45;;;;;;;4.00;2.55;;;14.60;46.30;;;7.59;59.80;94758.97;5323026;26;20009;-50
2024/04/25 08:24:13;;;;;;;4.13;2.85;;;14.70;46.10;;;7.60;60.13;94755.25;5314584;26;20020;-51
2024/04/25 08:26:39;;;;;;;4.43;2.47;;;14.80;45.70;;;7.61;59.30;94760.28;5318206;26;20043;-50
2024/04/25 08:29:09;;;;;;;4.20;2.72;;;15.00;44.80;;;7.74;59.58;94755.50;5322073;26;20027;-52
2024/04/25 08:31:35;;;;;;;5.47;2.80;;;15.00;44.40;;;7.81;58.77;94764.00;5323628;26;20004;-49
2024/04/25 08:34:00;;;;;;;4.75;3.30;;;15.10;44.20;;;7.63;59.26;94749.41;5325186;26;20016;-53
2024/04/25 08:36:26;;;;;;;6.55;3.10;;;15.00;43.80;;;7.68;58.94;94752.09;5319347;26;20053;-49
2024/04/25 08:38:52;;;;;;;4.95;2.42;;;15.20;43.40;;;7.99;58.42;94749.38;5333360;26;20013;-51
2024/04/25 08:41:19;;;;;;;4.93;2.83;;;15.50;43.00;;;8.25;58.50;94750.13;5334141;26;20008;-51
2024/04/25 08:43:45;;;;;;;4.85;3.15;;;15.80;42.80;;;8.52;58.70;94745.31;5336479;26;20023;-50
2024/04/25 08:46:16;;;;;;;4.82;2.55;;;16.00;42.80;;;8.61;57.25;94744.72;5319332;26;20464;-52
2024/04/25 08:48:44;;;;;;;6.18;3.00;;;16.30;41.90;;;8.87;55.13;94740.06;5337387;26;20019;-54
2024/04/25 08:51:16;;;;;;;6.03;2.80;;;16.70;41.40;;;9.24;55.32;94751.03;5318908;26;20001;-50
2024/04/25 08:53:47;;;;;;;3.88;2.85;;;16.90;41.10;;;9.33;53.39;94748.56;5335664;26;20494;-53
2024/04/25 08:56:14;;;;;;;4.95;2.67;;;17.00;40.60;;;8.93;52.53;94749.59;5333455;26;20093;-54
2024/04/25 08:58:40;;;;;;;8.02;3.28;;;17.10;39.60;;;9.25;53.28;94746.50;5327949;26;20072;-48
2024/04/25 09:01:07;;;;;;;3.17;2.70;;;17.20;39.20;;;9.31;52.12;94741.94;5339412;26;20567;-49
2024/04/25 09:03:33;;;;;;;4.15;3.10;;;17.20;38.90;;;9.57;52.27;94746.00;5336309;26;20098;-53
2024/04/25 09:05:59;;;;;;;4.80;3.13;;;17.20;39.20;;;9.30;51.30;94746.47;5318449;26;20020;-48
2024/04/25 09:08:29;;;;;;;4.93;3.03;;;17.50;38.40;;;9.66;52.20;94741.69;5319319;26;20024;-48
2024/04/25 09:10:55;;;;;;;7.32;3.20;;;17.70;38.00;;;9.65;50.18;94739.28;5323877;26;20045;-53
2024/04/25 09:13:21;;;;;;;6.70;3.13;;;17.90;38.10;;;9.54;50.89;94740.44;5318909;26;20009;-52
2024/04/25 09:15:48;;;;;;;5.93;3.05;;;17.90;37.60;;;9.67;49.83;94737.16;5313934;26;20494;-49
2024/04/25 09:18:14;;;;;;;6.35;3.83;;;17.90;37.60;;;9.59;48.76;94732.41;5307512;26;20009;-48
2024/04/25 09:20:41;;;;;;;5.82;2.97;;;17.90;37.20;;;9.62;50.34;94735.34;5321633;26;20008;-50
2024/04/25 09:23:07;;;;;;;6.57;3.38;;;17.90;36.90;;;10.06;50.17;94731.75;5323172;26;20016;-51
2024/04/25 09:25:33;;;;;;;6.30;3.03;;;18.20;37.20;;;10.19;49.63;94738.28;5322722;26;20005;-53
2024/04/25 09:28:02;;;;;;;6.57;3.20;;;18.60;37.00;;;10.12;47.53;94729.81;5322424;26;20016;-50
2024/04/25 09:30:31;;;;;;;5.35;2.83;;;18.70;36.00;;;10.35;48.24;94738.94;5325348;26;20023;-50
2024/04/25 09:32:56;;;;;;;4.43;2.70;;;18.70;35.80;;;10.45;46.90;94730.03;5341096;26;20007;-50
2024/04/25 09:35:22;;;;;;;4.57;2.67;;;18.70;36.00;;;10.56;48.22;94729.63;5337307;26;20000;-51
2024/04/25 09:37:48;;;;;;;4.05;2.85;;;18.60;36.00;;;10.23;47.32;94727.84;5320756;26;20005;-48
2024/04/25 09:40:14;;;;;;;5.95;2.70;;;18.50;35.80;;;10.27;45.37;94724.34;5326915;26;20428;-47
2024/04/25 09:42:43;;;;;;;6.05;3.00;;;18.30;35.50;;;9.93;47.17;94722.56;5325551;26;20037;-47
2024/04/25 09:45:14;;;;;;;4.03;2.83;;;18.10;35.00;;;9.79;46.03;94734.91;5328386;26;20063;-48
2024/04/25 09:47:52;;;;;;;7.10;2.72;;;17.80;34.90;;;9.39;48.69;94725.41;5325955;26;20359;-48
2024/04/25 09:50:27;;;;;;;5.35;2.65;;;17.60;34.90;;;9.62;47.95;94731.88;5330477;26;20424;-48
2024/04/25 09:53:02;;;;;;;3.90;2.60;;;17.40;35.30;;;9.67;50.78;94727.31;5292272;26;20090;-49
2024/04/25 09:55:40;;;;;;;4.30;3.05;;;17.30;35.50;;;9.70;49.51;94723.28;5320687;26;20152;-47
2024/04/25 09:58:42;;;;;;;6.25;3.10;;;17.30;35.70;;;9.80;51.13;94719.75;5339140;26;20026;-49
2024/04/25 10:01:09;;;;;;;4.75;2.65;;;17.30;36.00;;;9.50;50.88;94714.44;5322666;26;20035;-49
2024/04/25 10:03:37;;;;;;;6.15;2.80;;;17.20;36.40;;;9.46;52.32;94713.41;5332139;26;20468;-48
2024/04/25 10:06:05;;;;;;;3.22;2.30;;;16.90;36.60;;;9.43;49.99;94711.31;5327639;26;20031;-49
2024/04/25 10:08:31;;;;;;;8.35;4.13;;;16.70;36.80;;;9.52;51.88;94716.00;5321266;26;20019;-49
2024/04/25 10:10:58;;;;;;;5.50;2.88;;;16.50;37.00;;;9.22;50.94;94720.50;5334654;26;20046;-49
2024/04/25 10:13:25;;;;;;;5.43;2.50;;;16.40;37.20;;;8.80;50.96;94721.78;5321753;26;20015;-49
2024/04/25 10:15:52;;;;;;;5.85;2.88;;;16.10;37.00;;;8.16;56.38;94738.47;5339300;26;20019;-48
2024/04/25 10:18:18;;;;;;;4.10;2.30;;;15.80;37.50;;;7.11;61.31;94737.19;5316735;26;20009;-49
2024/04/25 10:20:46;;;;;;;4.05;2.58;;;15.20;38.60;;;6.83;66.39;94747.22;5348970;26;20004;-50
2024/04/25 10:23:12;;;;;;;6.65;2.90;;;14.60;39.50;;;6.84;71.96;94732.13;5320404;26;20023;-53
2024/04/25 10:25:38;;;;;;;6.38;2.90;;;14.30;40.50;;;6.98;70.56;94738.50;5326520;26;20013;-52
2024/04/25 10:28:08;;;;;;;5.13;2.70;;;14.10;41.20;;;7.05;71.24;94723.19;5323089;26;20086;-51